Time,TemperatureF,DewpointF,PressureIn,WindDirection,WindDirectionDegrees,WindSpeedMPH,WindSpeedGustMPH,Humidity,HourlyPrecipIn,Conditions,Clouds,dailyrainin,SolarRadiationWatts/m^2,SoftwareType,DateUTC
2013-07-16 00:01:00,67.0,46.0,-100.00,North,349,15.0,22.0,47,-99.99,,,0.00,0.120000,,2013-07-16 06:01:00,
2013-07-16 00:11:00,67.0,46.0,-100.00,North,349,15.0,22.0,47,-99.99,,,0.00,0.120000,,2013-07-16 06:11:00,
2013-07-16 00:43:00,63.0,47.0,-100.00,NNW,339,18.0,26.0,54,-99.99,,,0.00,0.120000,,2013-07-16 06:43:00,
2013-07-16 00:52:00,63.0,47.0,-100.00,NNW,339,18.0,26.0,54,-99.99,,,0.00,0.120000,,2013-07-16 06:52:00,
2013-07-16 01:01:00,63.0,47.0,-100.00,NNW,339,18.0,26.0,54,-99.99,,,0.00,0.120000,,2013-07-16 07:01:00,
2013-07-16 01:11:00,63.0,47.0,-100.00,NNW,339,18.0,26.0,54,-99.99,,,0.00,0.120000,,2013-07-16 07:11:00,
2013-07-16 01:43:00,61.0,46.0,-100.00,NNW,343,18.0,26.0,58,-99.99,,,0.00,0.120000,,2013-07-16 07:43:00,
2013-07-16 01:52:00,61.0,46.0,-100.00,NNW,343,18.0,26.0,58,-99.99,,,0.00,0.120000,,2013-07-16 07:52:00,
2013-07-16 02:01:00,61.0,46.0,-100.00,NNW,343,18.0,26.0,58,-99.99,,,0.00,0.120000,,2013-07-16 08:01:00,
2013-07-16 02:11:00,61.0,46.0,-100.00,NNW,343,18.0,26.0,58,-99.99,,,0.00,0.120000,,2013-07-16 08:11:00,
2013-07-16 02:43:00,58.0,46.0,-100.00,NNW,343,16.0,24.0,63,-99.99,,,0.00,0.120000,,2013-07-16 08:43:00,
2013-07-16 02:52:00,58.0,46.0,-100.00,NNW,343,16.0,24.0,63,-99.99,,,0.00,0.120000,,2013-07-16 08:52:00,
2013-07-16 03:01:00,58.0,46.0,-100.00,NNW,343,16.0,24.0,63,-99.99,,,0.00,0.120000,,2013-07-16 09:01:00,
2013-07-16 03:12:00,58.0,46.0,-100.00,NNW,343,16.0,24.0,63,-99.99,,,0.00,0.120000,,2013-07-16 09:12:00,
2013-07-16 03:42:00,57.0,45.0,-100.00,NNW,336,16.0,24.0,64,-99.99,,,-99.99,0.120000,,2013-07-16 09:42:00,
2013-07-16 03:52:00,57.0,45.0,-100.00,NNW,336,16.0,24.0,64,-99.99,,,-99.99,0.120000,,2013-07-16 09:52:00,
2013-07-16 04:01:00,57.0,45.0,-100.00,NNW,336,16.0,24.0,64,-99.99,,,-99.99,0.120000,,2013-07-16 10:01:00,
2013-07-16 04:11:00,57.0,45.0,-100.00,NNW,336,16.0,24.0,64,-99.99,,,-99.99,0.120000,,2013-07-16 10:11:00,
2013-07-16 04:43:00,55.0,43.0,-100.00,NNW,330,14.0,20.0,65,-99.99,,,0.00,0.120000,,2013-07-16 10:43:00,
2013-07-16 04:52:00,55.0,43.0,-100.00,NNW,330,14.0,20.0,65,-99.99,,,0.00,0.120000,,2013-07-16 10:52:00,
2013-07-16 05:01:00,55.0,43.0,-100.00,NNW,330,14.0,20.0,65,-99.99,,,0.00,0.120000,,2013-07-16 11:01:00,
2013-07-16 05:11:00,55.0,43.0,-100.00,NNW,330,14.0,20.0,65,-99.99,,,0.00,0.120000,,2013-07-16 11:11:00,
2013-07-16 05:42:00,54.0,43.0,-100.00,NNW,327,13.0,20.0,67,-99.99,,,0.00,0.120000,,2013-07-16 11:42:00,
2013-07-16 05:53:00,54.0,43.0,-100.00,NNW,327,13.0,20.0,67,-99.99,,,0.00,0.120000,,2013-07-16 11:53:00,
2013-07-16 06:01:00,54.0,43.0,-100.00,NNW,327,13.0,20.0,67,-99.99,,,0.00,0.120000,,2013-07-16 12:01:00,
2013-07-16 06:11:00,54.0,43.0,-100.00,NNW,327,13.0,20.0,67,-99.99,,,0.00,0.120000,,2013-07-16 12:11:00,
2013-07-16 06:43:00,53.0,43.0,-100.00,NNW,329,12.0,18.0,67,-99.99,,,-99.99,11.270000,,2013-07-16 12:43:00,
2013-07-16 06:53:00,53.0,43.0,-100.00,NNW,329,12.0,18.0,67,-99.99,,,-99.99,11.270000,,2013-07-16 12:53:00,
2013-07-16 07:01:00,53.0,43.0,-100.00,NNW,329,12.0,18.0,67,-99.99,,,-99.99,11.270000,,2013-07-16 13:01:00,
2013-07-16 07:11:00,53.0,43.0,-100.00,NNW,329,12.0,18.0,67,-99.99,,,-99.99,11.270000,,2013-07-16 13:11:00,
2013-07-16 07:42:00,55.0,43.0,-100.00,NNW,334,11.0,17.0,63,-99.99,,,0.00,138.190002,,2013-07-16 13:42:00,
2013-07-16 07:52:00,55.0,43.0,-100.00,NNW,334,11.0,17.0,63,-99.99,,,0.00,138.190002,,2013-07-16 13:52:00,
2013-07-16 08:01:00,55.0,43.0,-100.00,NNW,334,11.0,17.0,63,-99.99,,,0.00,138.190002,,2013-07-16 14:01:00,
2013-07-16 08:11:00,55.0,43.0,-100.00,NNW,334,11.0,17.0,63,-99.99,,,0.00,138.190002,,2013-07-16 14:11:00,
2013-07-16 08:43:00,58.0,43.0,-100.00,NW,321,6.0,11.0,57,-99.99,,,0.00,302.059998,,2013-07-16 14:43:00,
2013-07-16 08:52:00,58.0,43.0,-100.00,NW,321,6.0,11.0,57,-99.99,,,0.00,302.059998,,2013-07-16 14:52:00,
2013-07-16 09:01:00,58.0,43.0,-100.00,NW,321,6.0,11.0,57,-99.99,,,0.00,302.059998,,2013-07-16 15:01:00,
2013-07-16 09:11:00,58.0,43.0,-100.00,NW,321,6.0,11.0,57,-99.99,,,0.00,302.059998,,2013-07-16 15:11:00,
2013-07-16 09:43:00,61.0,44.0,-100.00,WNW,289,3.0,12.0,53,-99.99,,,0.00,490.559998,,2013-07-16 15:43:00,
2013-07-16 09:53:00,61.0,44.0,-100.00,WNW,289,3.0,12.0,53,-99.99,,,0.00,490.559998,,2013-07-16 15:53:00,
2013-07-16 10:01:00,61.0,44.0,-100.00,WNW,289,3.0,12.0,53,-99.99,,,0.00,490.559998,,2013-07-16 16:01:00,
2013-07-16 10:11:00,61.0,44.0,-100.00,WNW,289,3.0,12.0,53,-99.99,,,0.00,490.559998,,2013-07-16 16:11:00,
2013-07-16 10:43:00,64.0,45.0,-100.00,SSW,202,2.0,5.0,50,-99.99,,,0.00,638.400024,,2013-07-16 16:43:00,
2013-07-16 10:52:00,64.0,45.0,-100.00,SSW,202,2.0,5.0,50,-99.99,,,0.00,638.400024,,2013-07-16 16:52:00,
2013-07-16 11:02:00,64.0,45.0,-100.00,SSW,202,2.0,5.0,50,-99.99,,,0.00,638.400024,,2013-07-16 17:02:00,
2013-07-16 11:12:00,64.0,45.0,-100.00,SSW,202,2.0,5.0,50,-99.99,,,0.00,638.400024,,2013-07-16 17:12:00,
2013-07-16 11:43:00,69.0,47.0,-100.00,East,80,3.0,6.0,44,-99.99,,,0.00,809.940002,,2013-07-16 17:43:00,
2013-07-16 11:53:00,69.0,47.0,-100.00,East,80,3.0,6.0,44,-99.99,,,0.00,809.940002,,2013-07-16 17:53:00,
2013-07-16 12:01:00,69.0,47.0,-100.00,East,80,3.0,6.0,44,-99.99,,,0.00,809.940002,,2013-07-16 18:01:00,
2013-07-16 12:11:00,69.0,47.0,-100.00,East,80,3.0,6.0,44,-99.99,,,0.00,809.940002,,2013-07-16 18:11:00,
2013-07-16 12:43:00,72.0,46.0,-100.00,East,80,4.0,7.0,40,-99.99,,,0.00,891.409973,,2013-07-16 18:43:00,
2013-07-16 12:52:00,72.0,46.0,-100.00,East,80,4.0,7.0,40,-99.99,,,0.00,891.409973,,2013-07-16 18:52:00,
2013-07-16 13:01:00,72.0,46.0,-100.00,East,80,4.0,7.0,40,-99.99,,,0.00,891.409973,,2013-07-16 19:01:00,
2013-07-16 13:11:00,72.0,46.0,-100.00,East,80,4.0,7.0,40,-99.99,,,0.00,891.409973,,2013-07-16 19:11:00,
2013-07-16 13:43:00,75.0,47.0,-100.00,ENE,65,5.0,14.0,36,-99.99,,,0.00,948.359985,,2013-07-16 19:43:00,
2013-07-16 13:52:00,75.0,47.0,-100.00,ENE,65,5.0,14.0,36,-99.99,,,0.00,948.359985,,2013-07-16 19:52:00,
2013-07-16 14:03:00,75.0,47.0,-100.00,ENE,65,5.0,14.0,36,-99.99,,,0.00,948.359985,,2013-07-16 20:03:00,
2013-07-16 14:11:00,75.0,47.0,-100.00,ENE,65,5.0,14.0,36,-99.99,,,0.00,948.359985,,2013-07-16 20:11:00,
2013-07-16 14:43:00,79.0,47.0,-100.00,NW,305,3.0,6.0,33,-99.99,,,0.00,885.599976,,2013-07-16 20:43:00,
2013-07-16 14:52:00,79.0,47.0,-100.00,NW,305,3.0,6.0,33,-99.99,,,0.00,885.599976,,2013-07-16 20:52:00,
2013-07-16 15:01:00,79.0,47.0,-100.00,NW,305,3.0,6.0,33,-99.99,,,0.00,885.599976,,2013-07-16 21:01:00,
2013-07-16 15:11:00,79.0,47.0,-100.00,NW,305,3.0,6.0,33,-99.99,,,0.00,885.599976,,2013-07-16 21:11:00,
2013-07-16 15:52:00,81.0,48.0,-100.00,NNE,26,6.0,11.0,30,-99.99,,,0.00,880.950012,,2013-07-16 21:52:00,
2013-07-16 16:01:00,81.0,48.0,-100.00,NNE,26,6.0,11.0,30,-99.99,,,0.00,880.950012,,2013-07-16 22:01:00,
2013-07-16 16:11:00,81.0,48.0,-100.00,NNE,26,6.0,11.0,30,-99.99,,,0.00,880.950012,,2013-07-16 22:11:00,
2013-07-16 16:43:00,85.0,47.0,-100.00,NNW,334,8.0,17.0,27,-99.99,,,0.00,777.739990,,2013-07-16 22:43:00,
2013-07-16 16:52:00,85.0,47.0,-100.00,NNW,334,8.0,17.0,27,-99.99,,,0.00,777.739990,,2013-07-16 22:52:00,
2013-07-16 17:01:00,85.0,47.0,-100.00,NNW,334,8.0,17.0,27,-99.99,,,0.00,777.739990,,2013-07-16 23:01:00,
2013-07-16 17:11:00,85.0,47.0,-100.00,NNW,334,8.0,17.0,27,-99.99,,,0.00,777.739990,,2013-07-16 23:11:00,
2013-07-16 17:42:00,85.0,47.0,-100.00,North,1,7.0,17.0,26,-99.99,,,0.00,646.419983,,2013-07-16 23:42:00,
2013-07-16 17:52:00,85.0,47.0,-100.00,North,1,7.0,17.0,26,-99.99,,,0.00,646.419983,,2013-07-16 23:52:00,
2013-07-16 18:01:00,85.0,47.0,-100.00,North,1,7.0,17.0,26,-99.99,,,0.00,646.419983,,2013-07-17 00:01:00,
2013-07-16 18:11:00,85.0,47.0,-100.00,North,1,7.0,17.0,26,-99.99,,,0.00,646.419983,,2013-07-17 00:11:00,
2013-07-16 19:42:00,78.0,46.0,-100.00,NW,308,13.0,31.0,32,-99.99,,,0.00,29.639999,,2013-07-17 01:42:00,
2013-07-16 19:53:00,78.0,46.0,-100.00,NW,308,13.0,31.0,32,-99.99,,,0.00,29.639999,,2013-07-17 01:53:00,
2013-07-16 20:01:00,78.0,46.0,-100.00,NW,308,13.0,31.0,32,-99.99,,,0.00,29.639999,,2013-07-17 02:01:00,
2013-07-16 20:11:00,78.0,46.0,-100.00,NW,308,13.0,31.0,32,-99.99,,,0.00,29.639999,,2013-07-17 02:11:00,
2013-07-16 20:43:00,74.0,47.0,-100.00,NW,315,10.0,16.0,38,-99.99,,,0.00,13.480000,,2013-07-17 02:43:00,
2013-07-16 20:53:00,74.0,47.0,-100.00,NW,315,10.0,16.0,38,-99.99,,,0.00,13.480000,,2013-07-17 02:53:00,
2013-07-16 21:01:00,74.0,47.0,-100.00,NW,315,10.0,16.0,38,-99.99,,,0.00,13.480000,,2013-07-17 03:01:00,
2013-07-16 21:11:00,74.0,47.0,-100.00,NW,315,10.0,16.0,38,-99.99,,,0.00,13.480000,,2013-07-17 03:11:00,
2013-07-16 21:43:00,71.0,49.0,-100.00,NW,311,7.0,11.0,45,-99.99,,,0.00,0.460000,,2013-07-17 03:43:00,
2013-07-16 21:53:00,71.0,49.0,-100.00,NW,311,7.0,11.0,45,-99.99,,,0.00,0.460000,,2013-07-17 03:53:00,
2013-07-16 22:01:00,71.0,49.0,-100.00,NW,311,7.0,11.0,45,-99.99,,,0.00,0.460000,,2013-07-17 04:01:00,
2013-07-16 22:11:00,71.0,49.0,-100.00,NW,311,7.0,11.0,45,-99.99,,,0.00,0.460000,,2013-07-17 04:11:00,
2013-07-16 22:43:00,65.0,56.0,-100.00,SSE,167,6.0,9.0,72,-99.99,,,0.00,0.120000,,2013-07-17 04:43:00,
2013-07-16 22:53:00,65.0,56.0,-100.00,SSE,167,6.0,9.0,72,-99.99,,,0.00,0.120000,,2013-07-17 04:53:00,
2013-07-16 23:01:00,65.0,56.0,-100.00,SSE,167,6.0,9.0,72,-99.99,,,0.00,0.120000,,2013-07-17 05:01:00,
2013-07-16 23:11:00,65.0,56.0,-100.00,SSE,167,6.0,9.0,72,-99.99,,,0.00,0.120000,,2013-07-17 05:11:00,
2013-07-16 23:43:00,62.0,59.0,-100.00,South,183,12.0,18.0,90,-99.99,,,0.00,0.120000,,2013-07-17 05:43:00,
2013-07-16 23:52:00,62.0,59.0,-100.00,South,183,12.0,18.0,90,-99.99,,,0.00,0.120000,,2013-07-17 05:52:00,